Abbeville, GA

4:09 PM EDT on July 23, 2014 (GMT -0400)
Abbeville, GA (KGAABBEV4) Elev 253 ft | 32.00 °N, 83.32 °W | Change Station

Current weather conditions updated 12 seconds ago

Partly Cloudy
Partly Cloudy
99.3 °F
Feels Like 114 °F
N
5.3
Wind Variable Wind from West

Tomorrow is forecast to be Cooler than today. Thunderstorms early tomorrow night.

Today
High -- | Low -- °F
--% Chance of Precip.
Yesterday
High -- | Low -- °F
Precip. -- in
6:42 AM 8:36 PM
Waning Crescent, 9% visible
Pressure 30.05 in
Visibility 10.0 miles
Clouds Scattered Clouds 4900 ft
Scattered Clouds 7000 ft
Heat Index 114 °F
Dew Point 76 °F
Humidity 47%
Rainfall 0.00 in
Snow Depth Not available.
UV 8 out of 12
Pollen 3.60 out of 12
Air Quality Not available.
Flu Activity Not available.
METAR KEZM 231955Z AUTO 22004KT 10SM SCT049 SCT070 33/22 A3005 RMK AO2 T03300224

More Conditions Fewer Conditions

Pressure 30.05 in
Visibility 10.0 miles
Clouds Scattered Clouds 4900 ft
Scattered Clouds 7000 ft
Heat Index 114 °F
Dew Point 76 °F
Humidity 47%
Rainfall 0.00 in
Snow Depth Not available.
UV 8 out of 12
Pollen 3.60 out of 12
Air Quality Not available.
Flu Activity Not available.
METAR KEZM 231955Z AUTO 22004KT 10SM SCT049 SCT070 33/22 A3005 RMK AO2 T03300224

More Conditions Fewer Conditions

10-Day Weather Forecast

Almanac

Astronomy

Jul. 23, 2014 Rise Set
Actual Time 6:42 AM EDT 8:36 PM EDT
Civil Twilight 6:15 AM EDT 9:03 PM EDT
Nautical Twilight 5:42 AM EDT 9:36 PM EDT
Astronomical Twilight 5:07 AM EDT 10:11 PM EDT
Moon 3:59 AM EDT 6:05 PM EDT
Length of Visible Light 14h 47m
Length of Day
13h 53m
Tomorrow will be 1m 15s shorter.
Waning Crescent, 9% of the Moon is Illuminated
Today
Waning Crescent
Jul 26
New
Aug 3
First Quarter
Aug 10
Full
Aug 17
Last Quarter

Today's Extremes

State Highs State Lows

Community

WunderPhotos

Upload Photos

1,736,748 photos uploaded!

Nearby

Snow Depth

Station Depth Elevation
No new snow has been reported.

Earthquake Activity

City Distance Mag. Time & Date
No recent earthquake activity has been reported nearby.
Minimum magnitude displayed is 2.5.

Coastal Water Temperatures

Place Temperature
No Stations Reporting

Nearby Weather Stations

Station Location Temp. Heat Index Dew Point Humidity Wind Precip. Elev Updated Type
Abbeville, GA, Abbeville, GA 99.3 °F 114 °F 76 °F 47% West  at  5.3 mph - / hr 253 ft 4:09 PM EDT Normal
Eastman, Eastman, GA 91.6 °F 98 °F 71 °F 51% SSW  at  2.7 mph - / hr 381 ft 3:58 PM EDT Normal

Show More Stations Show Fewer Stations